sensor_id;sensor_type;location;lat;lon;timestamp;pressure;altitude;pressure_sealevel;temperature;humidity
30714;BME280;17465;47.934;33.430;2023-05-24T00:00:59;57343.14;;;-140.43;94.27
30714;BME280;17465;47.934;33.430;2023-05-24T00:03:30;57333.61;;;-140.43;94.51
30714;BME280;17465;47.934;33.430;2023-05-24T00:06:01;57315.61;;;-140.43;94.30
30714;BME280;17465;47.934;33.430;2023-05-24T00:08:33;57337.84;;;-140.43;94.32
30714;BME280;17465;47.934;33.430;2023-05-24T00:11:03;57337.84;;;-140.43;94.32
30714;BME280;17465;47.934;33.430;2023-05-24T00:13:34;57314.55;;;-140.43;94.77
30714;BME280;17465;47.934;33.430;2023-05-24T00:16:05;57347.38;;;-140.43;95.04
30714;BME280;17465;47.934;33.430;2023-05-24T00:18:35;57328.31;;;-140.43;94.94
30714;BME280;17465;47.934;33.430;2023-05-24T00:21:06;57328.31;;;-140.43;94.94
30714;BME280;17465;47.934;33.430;2023-05-24T00:23:37;57335.73;;;-140.43;95.08
30714;BME280;17465;47.934;33.430;2023-05-24T00:26:08;57329.37;;;-140.43;95.44
30714;BME280;17465;47.934;33.430;2023-05-24T00:28:39;57329.37;;;-140.43;95.44
30714;BME280;17465;47.934;33.430;2023-05-24T00:31:10;57320.90;;;-140.43;95.97
30714;BME280;17465;47.934;33.430;2023-05-24T00:33:40;57338.90;;;-140.43;95.99
30714;BME280;17465;47.934;33.430;2023-05-24T00:36:11;57334.67;;;-140.43;96.55
30714;BME280;17465;47.934;33.430;2023-05-24T00:38:42;57280.66;;;-140.43;96.65
30714;BME280;17465;47.934;33.430;2023-05-24T00:41:12;57280.66;;;-140.43;96.65
30714;BME280;17465;47.934;33.430;2023-05-24T00:43:43;57316.66;;;-140.43;97.20
30714;BME280;17465;47.934;33.430;2023-05-24T00:48:48;57293.36;;;-140.43;97.05
30714;BME280;17465;47.934;33.430;2023-05-24T00:51:19;57293.36;;;-140.43;97.05
30714;BME280;17465;47.934;33.430;2023-05-24T00:53:49;57321.96;;;-140.43;96.92
30714;BME280;17465;47.934;33.430;2023-05-24T00:56:20;57339.96;;;-140.43;97.67
30714;BME280;17465;47.934;33.430;2023-05-24T00:58:51;57339.96;;;-140.43;97.67
30714;BME280;17465;47.934;33.430;2023-05-24T01:01:23;57342.08;;;-140.43;97.54
30714;BME280;17465;47.934;33.430;2023-05-24T01:03:53;57349.49;;;-140.43;97.43
30714;BME280;17465;47.934;33.430;2023-05-24T01:06:25;57348.43;;;-140.43;97.71
30714;BME280;17465;47.934;33.430;2023-05-24T01:17:25;57333.61;;;-140.43;97.77
30714;BME280;17465;47.934;33.430;2023-05-24T01:20:05;57310.31;;;-140.43;98.30
30714;BME280;17465;47.934;33.430;2023-05-24T01:23:04;57310.31;;;-140.43;98.30
30714;BME280;17465;47.934;33.430;2023-05-24T01:28:32;57317.72;;;-140.43;99.40
30714;BME280;17465;47.934;33.430;2023-05-24T01:31:03;57329.37;;;-140.43;98.61
30714;BME280;17465;47.934;33.430;2023-05-24T01:33:34;57297.60;;;-140.43;98.61
30714;BME280;17465;47.934;33.430;2023-05-24T01:36:06;57299.72;;;-140.43;98.33
30714;BME280;17465;47.934;33.430;2023-05-24T01:38:38;57299.72;;;-140.43;98.33
30714;BME280;17465;47.934;33.430;2023-05-24T01:46:40;57321.96;;;-140.43;99.04
30714;BME280;17465;47.934;33.430;2023-05-24T01:49:20;57321.96;;;-140.43;99.04
30714;BME280;17465;47.934;33.430;2023-05-24T01:51:58;57306.07;;;-140.43;98.99
30714;BME280;17465;47.934;33.430;2023-05-24T01:54:32;57306.07;;;-140.43;98.99
30714;BME280;17465;47.934;33.430;2023-05-24T01:57:03;57328.31;;;-140.43;99.12
30714;BME280;17465;47.934;33.430;2023-05-24T01:59:35;57312.43;;;-140.43;99.41
30714;BME280;17465;47.934;33.430;2023-05-24T02:02:08;57324.07;;;-140.43;99.66
30714;BME280;17465;47.934;33.430;2023-05-24T02:07:33;57329.37;;;-140.43;99.38
30714;BME280;17465;47.934;33.430;2023-05-24T02:10:10;57300.78;;;-140.43;99.82
30714;BME280;17465;47.934;33.430;2023-05-24T02:12:48;57305.01;;;-140.43;99.92
30714;BME280;17465;47.934;33.430;2023-05-24T02:15:20;57332.55;;;-140.43;99.91
30714;BME280;17465;47.934;33.430;2023-05-24T02:17:54;57308.19;;;-140.43;99.66
30714;BME280;17465;47.934;33.430;2023-05-24T02:20:24;57302.89;;;-140.43;99.73
30714;BME280;17465;47.934;33.430;2023-05-24T02:22:55;57302.89;;;-140.43;99.73
30714;BME280;17465;47.934;33.430;2023-05-24T02:25:26;57325.14;;;-140.43;99.98
30714;BME280;17465;47.934;33.430;2023-05-24T02:28:02;57328.31;;;-140.43;99.91
30714;BME280;17465;47.934;33.430;2023-05-24T02:30:32;57308.19;;;-140.43;99.97
30714;BME280;17465;47.934;33.430;2023-05-24T02:33:02;57334.67;;;-140.43;99.98
30714;BME280;17465;47.934;33.430;2023-05-24T02:35:42;57343.14;;;-140.43;99.96
30714;BME280;17465;47.934;33.430;2023-05-24T02:38:12;57344.20;;;-140.43;100.00
30714;BME280;17465;47.934;33.430;2023-05-24T02:40:43;57299.72;;;-140.43;100.00
30714;BME280;17465;47.934;33.430;2023-05-24T02:43:14;57305.01;;;-140.43;100.00
30714;BME280;17465;47.934;33.430;2023-05-24T02:45:44;57299.72;;;-140.43;100.00
30714;BME280;17465;47.934;33.430;2023-05-24T02:48:14;57297.60;;;-140.43;100.00
30714;BME280;17465;47.934;33.430;2023-05-24T02:50:45;57343.14;;;-140.43;100.00
30714;BME280;17465;47.934;33.430;2023-05-24T02:53:15;57316.66;;;-140.43;100.00
30714;BME280;17465;47.934;33.430;2023-05-24T02:55:46;57312.43;;;-140.43;100.00
30714;BME280;17465;47.934;33.430;2023-05-24T02:58:17;57332.55;;;-140.43;100.00
30714;BME280;17465;47.934;33.430;2023-05-24T03:00:47;57299.72;;;-140.43;100.00
30714;BME280;17465;47.934;33.430;2023-05-24T03:03:17;57332.55;;;-140.43;99.97
30714;BME280;17465;47.934;33.430;2023-05-24T03:05:48;57332.55;;;-140.43;99.97
30714;BME280;17465;47.934;33.430;2023-05-24T03:08:20;57332.55;;;-140.43;99.78
30714;BME280;17465;47.934;33.430;2023-05-24T03:10:50;57332.55;;;-140.43;99.78
30714;BME280;17465;47.934;33.430;2023-05-24T03:13:20;57325.14;;;-140.43;98.59
30714;BME280;17465;47.934;33.430;2023-05-24T03:16:08;57335.73;;;-140.43;98.66
30714;BME280;17465;47.934;33.430;2023-05-24T03:18:51;57344.20;;;-140.43;98.55
30714;BME280;17465;47.934;33.430;2023-05-24T03:21:22;57298.66;;;-140.43;98.75
30714;BME280;17465;47.934;33.430;2023-05-24T03:23:52;57298.66;;;-140.43;98.75
30714;BME280;17465;47.934;33.430;2023-05-24T03:26:23;57325.14;;;-140.43;98.30
30714;BME280;17465;47.934;33.430;2023-05-24T03:28:54;57325.14;;;-140.43;98.30
30714;BME280;17465;47.934;33.430;2023-05-24T03:31:25;57330.43;;;-140.43;98.46
30714;BME280;17465;47.934;33.430;2023-05-24T03:33:55;57325.14;;;-140.43;98.00
30714;BME280;17465;47.934;33.430;2023-05-24T03:36:26;57330.43;;;-140.43;98.48
30714;BME280;17465;47.934;33.430;2023-05-24T03:38:57;57320.90;;;-140.43;98.48
30714;BME280;17465;47.934;33.430;2023-05-24T03:41:29;57320.90;;;-140.43;98.24
30714;BME280;17465;47.934;33.430;2023-05-24T03:43:59;57335.73;;;-140.43;97.79
30714;BME280;17465;47.934;33.430;2023-05-24T03:46:31;57336.79;;;-140.43;97.59
30714;BME280;17465;47.934;33.430;2023-05-24T03:49:02;57352.67;;;-140.43;97.24
30714;BME280;17465;47.934;33.430;2023-05-24T03:51:34;57348.43;;;-140.43;97.13
30714;BME280;17465;47.934;33.430;2023-05-24T03:54:08;57351.61;;;-140.43;97.06
30714;BME280;17465;47.934;33.430;2023-05-24T03:56:38;57366.44;;;-140.43;96.83
30714;BME280;17465;47.934;33.430;2023-05-24T03:59:09;57366.44;;;-140.43;96.83
30714;BME280;17465;47.934;33.430;2023-05-24T04:01:41;57363.26;;;-140.43;97.57
30714;BME280;17465;47.934;33.430;2023-05-24T04:04:12;57359.03;;;-140.43;97.95
30714;BME280;17465;47.934;33.430;2023-05-24T04:06:43;57378.09;;;-140.43;97.82
30714;BME280;17465;47.934;33.430;2023-05-24T04:09:13;57373.85;;;-140.43;97.37
30714;BME280;17465;47.934;33.430;2023-05-24T04:11:43;57371.73;;;-140.43;96.75
30714;BME280;17465;47.934;33.430;2023-05-24T04:14:14;57379.15;;;-140.43;97.08
30714;BME280;17465;47.934;33.430;2023-05-24T04:16:44;57335.73;;;-140.43;97.03
30714;BME280;17465;47.934;33.430;2023-05-24T04:19:14;57335.73;;;-140.43;97.03
30714;BME280;17465;47.934;33.430;2023-05-24T04:21:49;57348.43;;;-140.43;96.49
30714;BME280;17465;47.934;33.430;2023-05-24T04:24:22;57348.43;;;-140.43;96.49
30714;BME280;17465;47.934;33.430;2023-05-24T04:26:53;57385.50;;;-140.43;95.39
30714;BME280;17465;47.934;33.430;2023-05-24T04:29:24;57385.50;;;-140.43;95.39
30714;BME280;17465;47.934;33.430;2023-05-24T04:31:55;57374.91;;;-140.43;95.05
30714;BME280;17465;47.934;33.430;2023-05-24T04:34:26;57374.91;;;-140.43;95.05
30714;BME280;17465;47.934;33.430;2023-05-24T04:36:57;57359.03;;;-140.43;95.93
30714;BME280;17465;47.934;33.430;2023-05-24T04:39:29;57413.04;;;-140.43;95.44
30714;BME280;17465;47.934;33.430;2023-05-24T04:42:01;57411.98;;;-140.43;93.78
30714;BME280;17465;47.934;33.430;2023-05-24T04:44:35;57399.27;;;-140.43;92.67
30714;BME280;17465;47.934;33.430;2023-05-24T04:47:05;57409.86;;;-140.43;92.32
30714;BME280;17465;47.934;33.430;2023-05-24T04:49:37;57408.80;;;-140.43;93.10
30714;BME280;17465;47.934;33.430;2023-05-24T04:52:08;57398.21;;;-140.43;92.45
30714;BME280;17465;47.934;33.430;2023-05-24T04:54:39;57433.16;;;-140.43;91.41
30714;BME280;17465;47.934;33.430;2023-05-24T04:57:12;57417.27;;;-140.43;91.16
30714;BME280;17465;47.934;33.430;2023-05-24T04:59:45;57433.16;;;-140.43;90.24
30714;BME280;17465;47.934;33.430;2023-05-24T05:02:15;57428.92;;;-140.43;90.54
30714;BME280;17465;47.934;33.430;2023-05-24T05:04:46;57428.92;;;-140.43;90.55
30714;BME280;17465;47.934;33.430;2023-05-24T05:07:18;57432.10;;;-140.43;89.00
30714;BME280;17465;47.934;33.430;2023-05-24T05:09:48;57449.05;;;-140.43;89.70
30714;BME280;17465;47.934;33.430;2023-05-24T05:12:27;57449.05;;;-140.43;89.70
30714;BME280;17465;47.934;33.430;2023-05-24T05:14:58;57451.16;;;-140.43;88.36
30714;BME280;17465;47.934;33.430;2023-05-24T05:17:28;57449.05;;;-140.43;88.70
30714;BME280;17465;47.934;33.430;2023-05-24T05:20:03;57480.82;;;-140.43;87.29
30714;BME280;17465;47.934;33.430;2023-05-24T05:22:31;57485.05;;;-140.43;86.99
30714;BME280;17465;47.934;33.430;2023-05-24T05:25:02;57467.05;;;-140.43;85.90
30714;BME280;17465;47.934;33.430;2023-05-24T05:27:33;57467.05;;;-140.43;85.90
30714;BME280;17465;47.934;33.430;2023-05-24T05:30:05;57504.12;;;-140.43;85.02
30714;BME280;17465;47.934;33.430;2023-05-24T05:33:05;57503.06;;;-140.43;82.09
30714;BME280;17465;47.934;33.430;2023-05-24T05:35:50;57485.05;;;-140.43;83.48
30714;BME280;17465;47.934;33.430;2023-05-24T05:38:50;57485.05;;;-140.43;83.48
30714;BME280;17465;47.934;33.430;2023-05-24T05:42:13;57546.48;;;-140.43;80.10
30714;BME280;17465;47.934;33.430;2023-05-24T05:48:26;57528.48;;;-140.43;82.32
30714;BME280;17465;47.934;33.430;2023-05-24T05:50:59;57546.48;;;-140.43;81.84
30714;BME280;17465;47.934;33.430;2023-05-24T05:53:34;57541.19;;;-140.43;80.50
30714;BME280;17465;47.934;33.430;2023-05-24T06:06:06;57524.25;;;-140.43;80.38
30714;BME280;17465;47.934;33.430;2023-05-24T06:08:57;57524.25;;;-140.43;80.38
30714;BME280;17465;47.934;33.430;2023-05-24T06:11:32;57549.66;;;-140.43;80.61
30714;BME280;17465;47.934;33.430;2023-05-24T06:14:14;57547.54;;;-140.43;81.79
30714;BME280;17465;47.934;33.430;2023-05-24T06:17:15;57580.37;;;-140.43;79.04
30714;BME280;17465;47.934;33.430;2023-05-24T06:19:51;57622.74;;;-140.43;78.06
30714;BME280;17465;47.934;33.430;2023-05-24T06:22:21;57622.74;;;-140.43;78.06
30714;BME280;17465;47.934;33.430;2023-05-24T06:24:57;57589.91;;;-140.43;74.96
30714;BME280;17465;47.934;33.430;2023-05-24T06:27:31;57584.61;;;-140.43;75.42
30714;BME280;17465;47.934;33.430;2023-05-24T06:30:09;57592.03;;;-140.43;74.88
30714;BME280;17465;47.934;33.430;2023-05-24T06:32:40;57579.32;;;-140.43;74.02
30714;BME280;17465;47.934;33.430;2023-05-24T06:35:12;57579.32;;;-140.43;74.02
30714;BME280;17465;47.934;33.430;2023-05-24T06:37:44;57634.39;;;-140.43;71.85
30714;BME280;17465;47.934;33.430;2023-05-24T06:40:19;57634.39;;;-140.43;71.85
30714;BME280;17465;47.934;33.430;2023-05-24T06:43:01;57646.04;;;-140.43;71.00
30714;BME280;17465;47.934;33.430;2023-05-24T06:45:41;57664.05;;;-140.43;69.70
30714;BME280;17465;47.934;33.430;2023-05-24T06:48:16;57664.05;;;-140.43;69.70
30714;BME280;17465;47.934;33.430;2023-05-24T06:50:45;57670.41;;;-140.43;66.91
30714;BME280;17465;47.934;33.430;2023-05-24T06:53:22;57670.41;;;-140.43;66.91
30714;BME280;17465;47.934;33.430;2023-05-24T06:55:57;57690.53;;;-140.43;66.56
30714;BME280;17465;47.934;33.430;2023-05-24T06:58:35;57699.00;;;-140.43;66.33
30714;BME280;17465;47.934;33.430;2023-05-24T07:01:07;57699.00;;;-140.43;66.33
30714;BME280;17465;47.934;33.430;2023-05-24T07:03:49;57733.96;;;-140.43;64.37
30714;BME280;17465;47.934;33.430;2023-05-24T07:06:22;57727.60;;;-140.43;62.64
30714;BME280;17465;47.934;33.430;2023-05-24T07:09:02;57820.81;;;-140.43;58.64
30714;BME280;17465;47.934;33.430;2023-05-24T07:11:36;57761.49;;;-140.43;58.86
30714;BME280;17465;47.934;33.430;2023-05-24T07:14:09;57726.54;;;-140.43;60.86
30714;BME280;17465;47.934;33.430;2023-05-24T07:20:00;57733.96;;;-140.43;59.85
30714;BME280;17465;47.934;33.430;2023-05-24T07:22:37;57813.39;;;-140.43;55.84
30714;BME280;17465;47.934;33.430;2023-05-24T07:25:11;57836.70;;;-140.43;53.97
30714;BME280;17465;47.934;33.430;2023-05-24T07:27:51;57836.70;;;-140.43;53.97
30714;BME280;17465;47.934;33.430;2023-05-24T07:33:07;57932.03;;;-140.43;42.34
30714;BME280;17465;47.934;33.430;2023-05-24T07:35:46;57929.91;;;-140.43;46.36
30714;BME280;17465;47.934;33.430;2023-05-24T07:38:34;57929.91;;;-140.43;46.36
30714;BME280;17465;47.934;33.430;2023-05-24T07:41:01;57904.49;;;-140.43;47.52
30714;BME280;17465;47.934;33.430;2023-05-24T07:43:38;57854.70;;;-140.43;47.66
30714;BME280;17465;47.934;33.430;2023-05-24T07:46:16;57857.88;;;-140.43;48.01
30714;BME280;17465;47.934;33.430;2023-05-24T07:48:51;57865.30;;;-140.43;48.40
30714;BME280;17465;47.934;33.430;2023-05-24T07:51:30;57910.84;;;-140.43;46.32
30714;BME280;17465;47.934;33.430;2023-05-24T07:54:04;57951.09;;;-140.43;45.87
30714;BME280;17465;47.934;33.430;2023-05-24T07:56:38;57974.40;;;-140.43;45.68
30714;BME280;17465;47.934;33.430;2023-05-24T07:59:18;57917.20;;;-140.43;45.65
30714;BME280;17465;47.934;33.430;2023-05-24T08:14:23;57960.63;;;-140.43;43.80
30714;BME280;17465;47.934;33.430;2023-05-24T08:17:01;57948.98;;;-140.43;42.38
30714;BME280;17465;47.934;33.430;2023-05-24T08:19:41;58057.02;;;-140.43;38.40
30714;BME280;17465;47.934;33.430;2023-05-24T08:28:03;58136.47;;;-140.43;34.91
30714;BME280;17465;47.934;33.430;2023-05-24T08:30:45;58079.27;;;-140.43;36.38
30714;BME280;17465;47.934;33.430;2023-05-24T08:33:16;58105.75;;;-140.43;38.20
30714;BME280;17465;47.934;33.430;2023-05-24T08:35:50;58155.54;;;-140.43;36.14
30714;BME280;17465;47.934;33.430;2023-05-24T08:38:33;58157.66;;;-140.43;36.83
30714;BME280;17465;47.934;33.430;2023-05-24T08:41:25;58157.66;;;-140.43;36.83
30714;BME280;17465;47.934;33.430;2023-05-24T08:47:07;58272.06;;;-140.43;33.33
30714;BME280;17465;47.934;33.430;2023-05-24T08:49:45;58272.06;;;-140.43;33.33
30714;BME280;17465;47.934;33.430;2023-05-24T08:52:19;58218.04;;;-140.43;34.08
30714;BME280;17465;47.934;33.430;2023-05-24T08:54:58;58136.47;;;-140.43;35.10
30714;BME280;17465;47.934;33.430;2023-05-24T08:57:33;58222.27;;;-140.43;34.26
30714;BME280;17465;47.934;33.430;2023-05-24T09:00:08;58143.88;;;-140.43;34.28
30714;BME280;17465;47.934;33.430;2023-05-24T09:02:41;58182.02;;;-140.43;33.80
30714;BME280;17465;47.934;33.430;2023-05-24T09:05:13;58111.04;;;-140.43;36.95
30714;BME280;17465;47.934;33.430;2023-05-24T09:07:45;58184.14;;;-140.43;34.04
30714;BME280;17465;47.934;33.430;2023-05-24T09:13:11;57970.16;;;-140.43;37.08
30714;BME280;17465;47.934;33.430;2023-05-24T09:15:43;58186.26;;;-140.43;34.45
30714;BME280;17465;47.934;33.430;2023-05-24T09:18:15;58186.26;;;-140.43;34.45
30714;BME280;17465;47.934;33.430;2023-05-24T09:20:46;58014.65;;;-140.43;36.50
30714;BME280;17465;47.934;33.430;2023-05-24T09:23:27;57957.45;;;-140.43;37.93
30714;BME280;17465;47.934;33.430;2023-05-24T09:26:09;57945.80;;;-140.43;38.49
30714;BME280;17465;47.934;33.430;2023-05-24T09:28:42;57945.80;;;-140.43;38.49
30714;BME280;17465;47.934;33.430;2023-05-24T09:31:15;57861.06;;;-140.43;38.65
30714;BME280;17465;47.934;33.430;2023-05-24T09:33:47;57794.33;;;-140.43;40.86
30714;BME280;17465;47.934;33.430;2023-05-24T09:36:17;57844.11;;;-140.43;40.86
30714;BME280;17465;47.934;33.430;2023-05-24T09:38:48;57844.11;;;-140.43;40.86
30714;BME280;17465;47.934;33.430;2023-05-24T09:41:21;57897.07;;;-140.43;40.29
30714;BME280;17465;47.934;33.430;2023-05-24T09:43:53;57901.31;;;-140.43;39.01
30714;BME280;17465;47.934;33.430;2023-05-24T09:46:23;57901.31;;;-140.43;39.01
30714;BME280;17465;47.934;33.430;2023-05-24T09:48:58;57960.63;;;-140.43;38.82
30714;BME280;17465;47.934;33.430;2023-05-24T09:51:29;57960.63;;;-140.43;38.82
30714;BME280;17465;47.934;33.430;2023-05-24T09:54:03;58090.92;;;-140.43;35.45
30714;BME280;17465;47.934;33.430;2023-05-24T09:56:34;58161.89;;;-140.43;33.28
30714;BME280;17465;47.934;33.430;2023-05-24T09:59:06;58003.00;;;-140.43;35.72
30714;BME280;17465;47.934;33.430;2023-05-24T10:01:37;58098.33;;;-140.43;34.80
30714;BME280;17465;47.934;33.430;2023-05-24T10:04:08;58113.16;;;-140.43;32.89
30714;BME280;17465;47.934;33.430;2023-05-24T10:06:41;58113.16;;;-140.43;32.89
30714;BME280;17465;47.934;33.430;2023-05-24T10:09:11;58130.11;;;-140.43;35.09
30714;BME280;17465;47.934;33.430;2023-05-24T10:11:45;58130.11;;;-140.43;35.09
30714;BME280;17465;47.934;33.430;2023-05-24T10:14:15;58198.97;;;-140.43;36.40
30714;BME280;17465;47.934;33.430;2023-05-24T10:16:50;58148.12;;;-140.43;35.98
30714;BME280;17465;47.934;33.430;2023-05-24T10:19:22;58148.12;;;-140.43;35.98
30714;BME280;17465;47.934;33.430;2023-05-24T10:21:53;58249.82;;;-140.43;34.78
30714;BME280;17465;47.934;33.430;2023-05-24T10:24:31;58115.29;;;-140.43;34.87
30714;BME280;17465;47.934;33.430;2023-05-24T10:27:11;58123.76;;;-140.43;37.13
30714;BME280;17465;47.934;33.430;2023-05-24T10:32:47;58028.42;;;-140.43;39.10
30714;BME280;17465;47.934;33.430;2023-05-24T10:35:19;58050.67;;;-140.43;38.58
30714;BME280;17465;47.934;33.430;2023-05-24T10:37:53;58050.67;;;-140.43;38.58
30714;BME280;17465;47.934;33.430;2023-05-24T10:40:25;57982.87;;;-140.43;40.96
30714;BME280;17465;47.934;33.430;2023-05-24T10:42:58;57961.69;;;-140.43;41.49
30714;BME280;17465;47.934;33.430;2023-05-24T10:45:38;57956.39;;;-140.43;45.16
30714;BME280;17465;47.934;33.430;2023-05-24T10:50:50;57874.83;;;-140.43;47.31
30714;BME280;17465;47.934;33.430;2023-05-24T10:53:25;57885.42;;;-140.43;46.60
30714;BME280;17465;47.934;33.430;2023-05-24T10:55:59;57844.11;;;-140.43;48.40
30714;BME280;17465;47.934;33.430;2023-05-24T10:58:57;57844.11;;;-140.43;48.40
30714;BME280;17465;47.934;33.430;2023-05-24T11:01:32;57839.87;;;-140.43;50.69
30714;BME280;17465;47.934;33.430;2023-05-24T11:04:17;57780.56;;;-140.43;50.42
30714;BME280;17465;47.934;33.430;2023-05-24T11:06:55;57801.74;;;-140.43;50.04
30714;BME280;17465;47.934;33.430;2023-05-24T11:09:26;57791.15;;;-140.43;46.20
30714;BME280;17465;47.934;33.430;2023-05-24T11:12:07;57781.62;;;-140.43;47.71
30714;BME280;17465;47.934;33.430;2023-05-24T11:14:45;57796.45;;;-140.43;48.91
30714;BME280;17465;47.934;33.430;2023-05-24T11:17:10;57727.60;;;-140.43;48.85
30714;BME280;17465;47.934;33.430;2023-05-24T11:19:51;57727.60;;;-140.43;48.85
30714;BME280;17465;47.934;33.430;2023-05-24T11:22:23;57756.20;;;-140.43;52.95
30714;BME280;17465;47.934;33.430;2023-05-24T11:24:56;57744.55;;;-140.43;54.04
30714;BME280;17465;47.934;33.430;2023-05-24T11:27:27;57744.55;;;-140.43;54.04
30714;BME280;17465;47.934;33.430;2023-05-24T11:29:58;57721.25;;;-140.43;53.92
30714;BME280;17465;47.934;33.430;2023-05-24T11:32:32;57741.37;;;-140.43;55.74
30714;BME280;17465;47.934;33.430;2023-05-24T11:35:04;57699.00;;;-140.43;59.52
30714;BME280;17465;47.934;33.430;2023-05-24T11:37:34;57725.48;;;-140.43;58.85
30714;BME280;17465;47.934;33.430;2023-05-24T11:40:06;57724.42;;;-140.43;51.27
30714;BME280;17465;47.934;33.430;2023-05-24T11:42:41;57724.42;;;-140.43;51.27
30714;BME280;17465;47.934;33.430;2023-05-24T11:45:11;57722.30;;;-140.43;49.10
30714;BME280;17465;47.934;33.430;2023-05-24T11:47:47;57722.30;;;-140.43;49.10
30714;BME280;17465;47.934;33.430;2023-05-24T11:50:23;57727.60;;;-140.43;50.44
30714;BME280;17465;47.934;33.430;2023-05-24T11:53:01;57695.82;;;-140.43;54.45
30714;BME280;17465;47.934;33.430;2023-05-24T11:55:33;57723.36;;;-140.43;56.29
30714;BME280;17465;47.934;33.430;2023-05-24T11:58:24;57723.36;;;-140.43;56.29
30714;BME280;17465;47.934;33.430;2023-05-24T12:00:58;57713.83;;;-140.43;57.08
30714;BME280;17465;47.934;33.430;2023-05-24T12:03:29;57686.29;;;-140.43;59.08
30714;BME280;17465;47.934;33.430;2023-05-24T12:06:01;57664.05;;;-140.43;60.54
30714;BME280;17465;47.934;33.430;2023-05-24T12:08:33;57706.42;;;-140.43;64.09
30714;BME280;17465;47.934;33.430;2023-05-24T12:11:09;57706.42;;;-140.43;64.09
30714;BME280;17465;47.934;33.430;2023-05-24T12:13:49;57763.61;;;-140.43;57.64
30714;BME280;17465;47.934;33.430;2023-05-24T12:16:19;57804.92;;;-140.43;57.33
30714;BME280;17465;47.934;33.430;2023-05-24T12:18:55;57839.87;;;-140.43;53.86
30714;BME280;17465;47.934;33.430;2023-05-24T12:21:30;57924.61;;;-140.43;46.10
30714;BME280;17465;47.934;33.430;2023-05-24T12:24:17;57889.66;;;-140.43;48.96
30714;BME280;17465;47.934;33.430;2023-05-24T12:26:48;57832.46;;;-140.43;49.75
30714;BME280;17465;47.934;33.430;2023-05-24T12:29:22;57832.46;;;-140.43;49.75
30714;BME280;17465;47.934;33.430;2023-05-24T12:32:04;57799.62;;;-140.43;56.12
30714;BME280;17465;47.934;33.430;2023-05-24T12:34:41;57787.97;;;-140.43;54.55
30714;BME280;17465;47.934;33.430;2023-05-24T12:37:14;57787.97;;;-140.43;54.55
30714;BME280;17465;47.934;33.430;2023-05-24T12:43:01;57817.63;;;-140.43;51.52
30714;BME280;17465;47.934;33.430;2023-05-24T12:45:39;57817.63;;;-140.43;51.52
30714;BME280;17465;47.934;33.430;2023-05-24T12:48:15;57763.61;;;-140.43;50.97
30714;BME280;17465;47.934;33.430;2023-05-24T12:50:45;57807.04;;;-140.43;56.71
30714;BME280;17465;47.934;33.430;2023-05-24T12:53:20;57774.20;;;-140.43;55.78
30714;BME280;17465;47.934;33.430;2023-05-24T12:55:55;57785.86;;;-140.43;57.80
30714;BME280;17465;47.934;33.430;2023-05-24T12:58:29;57777.38;;;-140.43;61.99
30714;BME280;17465;47.934;33.430;2023-05-24T13:01:54;57777.38;;;-140.43;61.99
30714;BME280;17465;47.934;33.430;2023-05-24T13:04:15;57791.15;;;-140.43;60.43
30714;BME280;17465;47.934;33.430;2023-05-24T13:06:57;57780.56;;;-140.43;58.96
30714;BME280;17465;47.934;33.430;2023-05-24T13:09:21;57780.56;;;-140.43;58.96
30714;BME280;17465;47.934;33.430;2023-05-24T13:11:56;57779.50;;;-140.43;59.11
30714;BME280;17465;47.934;33.430;2023-05-24T13:14:27;57803.86;;;-140.43;57.44
30714;BME280;17465;47.934;33.430;2023-05-24T13:16:57;57803.86;;;-140.43;57.44
30714;BME280;17465;47.934;33.430;2023-05-24T13:19:28;57782.68;;;-140.43;57.22
30714;BME280;17465;47.934;33.430;2023-05-24T13:21:59;57760.44;;;-140.43;54.64
30714;BME280;17465;47.934;33.430;2023-05-24T13:24:30;57768.91;;;-140.43;55.47
30714;BME280;17465;47.934;33.430;2023-05-24T13:27:01;57768.91;;;-140.43;55.47
30714;BME280;17465;47.934;33.430;2023-05-24T13:29:32;57771.03;;;-140.43;54.21
30714;BME280;17465;47.934;33.430;2023-05-24T13:32:05;57771.03;;;-140.43;54.21
30714;BME280;17465;47.934;33.430;2023-05-24T13:34:39;57797.51;;;-140.43;53.25
30714;BME280;17465;47.934;33.430;2023-05-24T13:37:11;57797.51;;;-140.43;53.25
30714;BME280;17465;47.934;33.430;2023-05-24T13:39:42;57792.21;;;-140.43;53.66
30714;BME280;17465;47.934;33.430;2023-05-24T13:42:18;57771.03;;;-140.43;46.77
30714;BME280;17465;47.934;33.430;2023-05-24T13:44:47;57846.23;;;-140.43;44.21
30714;BME280;17465;47.934;33.430;2023-05-24T13:47:25;57837.76;;;-140.43;44.85
30714;BME280;17465;47.934;33.430;2023-05-24T13:49:59;57837.76;;;-140.43;44.85
30714;BME280;17465;47.934;33.430;2023-05-24T13:52:30;57873.77;;;-140.43;47.99
30714;BME280;17465;47.934;33.430;2023-05-24T13:55:02;57852.59;;;-140.43;46.51
30714;BME280;17465;47.934;33.430;2023-05-24T13:57:37;57835.64;;;-140.43;45.04
30714;BME280;17465;47.934;33.430;2023-05-24T14:00:10;57874.83;;;-140.43;45.22
30714;BME280;17465;47.934;33.430;2023-05-24T14:02:45;57874.83;;;-140.43;45.22
30714;BME280;17465;47.934;33.430;2023-05-24T14:05:33;57804.92;;;-140.43;47.35
30714;BME280;17465;47.934;33.430;2023-05-24T14:08:04;57843.05;;;-140.43;47.25
30714;BME280;17465;47.934;33.430;2023-05-24T14:10:50;57782.68;;;-140.43;51.95
30714;BME280;17465;47.934;33.430;2023-05-24T14:13:36;57736.07;;;-140.43;55.41
30714;BME280;17465;47.934;33.430;2023-05-24T14:16:12;57758.32;;;-140.43;54.88
30714;BME280;17465;47.934;33.430;2023-05-24T14:18:54;57758.32;;;-140.43;54.88
30714;BME280;17465;47.934;33.430;2023-05-24T14:21:26;57742.43;;;-140.43;56.34